SKAR/AXM METAR and TAF weather

Enter ICAO airport designator
Station Type Date Time Source
SKAR METAR 2020/11/24 19:00 UTC NOAA

SKAR 241900Z VRB03KT 8000 3000N TS FEW015CB BKN017 27/20 A2997 METAR SKBG 241900Z 33006KT 9999 SCT012 SCT070 24/22 A2992


Station Type Date Time Source
SKAR Decoded METAR 2020/11/24 19:00 UTC NOAA

Armenia / El Eden, Colombia (SKAR) 04-30N 075-43W 1219M
Nov 24, 2020 - 02:00 PM EST / 2020.11.24 1900 UTC
Wind: from the NNW (330 degrees) at 7 MPH (6 KT):0
Visibility: greater than 7 mile(s):0
Sky conditions: mostly cloudy
Weather: thunder; Cumulonimbus clouds observed
Temperature: 80 F (27 C)
Dew Point: 68 F (20 C)
Relative Humidity: 65%
Pressure (altimeter): 29.97 in. Hg (1014 hPa)
ob: SKAR 241900Z VRB03KT 8000 3000N TS FEW015CB BKN017 27/20 A2997 METAR SKBG 241900Z 33006KT 9999 SCT012 SCT070 24/22 A2992
cycle: 19

Station Type Date Time Source
SKAR TAF 2017/06/20 18:24 UTC NOAA

TAF TAF SKAR 201700Z 2018/2118 20006KT 9999 SCT023 BKN090
TEMPO 2021/2023 8000 VCSH SCT018TCU PROB40
TEMPO 2023/2101 7000 DZRA SCT017CB
BECMG 2101/2102 VRB02KT
TEMPO 2111/2113 7000 VCFG TX28/2019Z TN17/2111Z

Example: see airport list